createdAt,value
2019-06-07T00:00:27.091Z,17.40
2019-06-07T00:02:38.030Z,17.30
2019-06-07T00:05:10.010Z,17.40
2019-06-07T00:07:40.762Z,17.30
2019-06-07T00:10:14.445Z,17.40
2019-06-07T00:12:43.194Z,17.30
2019-06-07T00:15:16.410Z,17.30
2019-06-07T00:17:45.591Z,17.30
2019-06-07T00:20:22.663Z,17.30
2019-06-07T00:22:47.916Z,17.30
2019-06-07T00:25:24.146Z,17.30
2019-06-07T00:27:50.867Z,17.30
2019-06-07T00:30:50.879Z,17.20
2019-06-07T00:32:53.620Z,17.20
2019-06-07T00:35:23.806Z,17.20
2019-06-07T01:22:58.473Z,16.90
2019-06-07T01:25:29.178Z,16.90
2019-06-07T01:27:59.406Z,16.90
2019-06-07T01:30:29.875Z,16.80
2019-06-07T01:33:00.304Z,16.80
2019-06-07T01:35:30.498Z,16.70
2019-06-07T01:38:00.759Z,16.80
2019-06-07T01:40:32.910Z,16.70
2019-06-07T01:43:02.903Z,16.70
2019-06-07T01:45:33.205Z,16.70
2019-06-07T01:48:03.555Z,16.70
2019-06-07T01:50:33.908Z,16.70
2019-06-07T01:53:04.287Z,16.70
2019-06-07T01:55:34.686Z,16.70
2019-06-07T01:58:05.032Z,16.70
2019-06-07T02:00:35.364Z,16.70
2019-06-07T02:03:05.719Z,16.70
2019-06-07T02:05:36.122Z,16.70
2019-06-07T02:08:06.442Z,16.70
2019-06-07T02:10:36.916Z,16.70
2019-06-07T02:13:07.208Z,16.70
2019-06-07T02:15:37.402Z,16.70
2019-06-07T02:18:07.779Z,16.70
2019-06-07T02:20:38.089Z,16.80
2019-06-07T02:23:08.383Z,16.80
2019-06-07T02:25:48.665Z,16.80
2019-06-07T02:28:27.223Z,16.80
2019-06-07T02:30:51.035Z,16.80
2019-06-07T02:33:14.149Z,16.80
2019-06-07T02:35:44.375Z,16.90
2019-06-07T02:38:14.562Z,16.80
2019-06-07T02:40:44.915Z,16.90
2019-06-07T02:43:15.219Z,16.90
2019-06-07T02:45:45.593Z,16.90
2019-06-07T02:48:15.783Z,16.90
2019-06-07T02:50:46.641Z,16.90
2019-06-07T02:53:17.012Z,16.90
2019-06-07T02:56:34.181Z,16.90
2019-06-07T02:58:19.310Z,17.00
2019-06-07T03:01:10.187Z,17.00
2019-06-07T03:03:24.504Z,17.00
2019-06-07T03:05:55.724Z,17.00
2019-06-07T03:08:28.272Z,17.00
2019-06-07T03:11:00.416Z,17.00
2019-06-07T03:13:34.895Z,17.00
2019-06-07T03:16:07.823Z,17.00
2019-06-07T03:19:11.084Z,17.00
2019-06-07T03:21:43.574Z,17.00
2019-06-07T03:24:13.852Z,17.00
2019-06-07T03:27:31.821Z,17.00
2019-06-07T03:29:16.920Z,17.00
2019-06-07T03:31:48.280Z,17.00
2019-06-07T03:34:18.679Z,17.00
2019-06-07T03:36:49.124Z,17.00
2019-06-07T03:39:19.246Z,17.00
2019-06-07T03:42:05.150Z,17.10
2019-06-07T03:44:21.566Z,17.10
2019-06-07T03:46:51.889Z,17.10
2019-06-07T03:49:22.103Z,17.10
2019-06-07T03:51:52.212Z,17.10
2019-06-07T03:54:22.498Z,17.10
2019-06-07T03:56:52.937Z,17.10
2019-06-07T03:59:23.316Z,17.10
2019-06-07T04:01:53.422Z,17.10
2019-06-07T04:04:23.510Z,17.10
2019-06-07T04:06:54.240Z,17.10
2019-06-07T04:09:24.407Z,17.10
2019-06-07T04:11:54.700Z,17.10
2019-06-07T04:14:25.111Z,17.10
2019-06-07T04:16:55.314Z,17.10
2019-06-07T04:19:25.525Z,17.10
2019-06-07T04:21:56.058Z,17.20
2019-06-07T04:24:26.472Z,17.20
2019-06-07T04:26:56.581Z,17.20
2019-06-07T04:29:56.701Z,17.20
2019-06-07T04:31:58.679Z,17.20
2019-06-07T04:34:29.922Z,17.20
2019-06-07T04:37:01.419Z,17.20
2019-06-07T04:39:36.444Z,17.20
2019-06-07T04:42:05.730Z,17.10
2019-06-07T04:44:41.064Z,17.20
2019-06-07T04:47:14.006Z,17.20
2019-06-07T04:49:45.041Z,17.20
2019-06-07T04:52:15.752Z,17.20
2019-06-07T04:54:46.176Z,17.20
2019-06-07T04:57:16.604Z,17.20
2019-06-07T05:00:11.912Z,17.20
2019-06-07T05:02:18.906Z,17.20
2019-06-07T05:04:49.112Z,17.20
2019-06-07T05:07:19.509Z,17.20
2019-06-07T05:09:49.780Z,17.10
2019-06-07T05:12:20.311Z,17.20
2019-06-07T05:14:50.614Z,17.20
2019-06-07T05:17:20.967Z,17.30
2019-06-07T05:19:51.322Z,17.30
2019-06-07T05:22:21.646Z,17.30
2019-06-07T05:24:51.992Z,17.50
2019-06-07T05:27:22.104Z,17.50
2019-06-07T05:30:13.186Z,17.50
2019-06-07T05:32:24.436Z,17.50
2019-06-07T05:34:54.591Z,17.50
2019-06-07T05:37:24.820Z,17.40
2019-06-07T05:39:55.008Z,17.50
2019-06-07T05:42:25.405Z,17.40
2019-06-07T05:44:56.096Z,17.50
2019-06-07T05:47:26.498Z,17.60
2019-06-07T05:49:56.806Z,17.50
2019-06-07T05:52:27.571Z,17.60
2019-06-07T05:54:58.465Z,17.70
2019-06-07T05:57:28.652Z,17.80
2019-06-07T05:59:58.933Z,17.80
2019-06-07T06:02:29.142Z,17.90
2019-06-07T06:04:59.789Z,17.90
2019-06-07T06:07:38.735Z,17.90
2019-06-07T06:10:07.879Z,17.90
2019-06-07T06:12:42.676Z,17.80
2019-06-07T06:15:10.867Z,17.90
2019-06-07T06:17:45.413Z,18.00
2019-06-07T06:20:13.863Z,18.00
2019-06-07T06:22:50.585Z,18.00
2019-06-07T06:25:31.426Z,18.00
2019-06-07T06:28:10.018Z,18.00
2019-06-07T06:30:22.254Z,18.10
2019-06-07T06:32:57.725Z,18.20
2019-06-07T06:35:25.958Z,18.80
2019-06-07T06:37:56.192Z,19.00
2019-06-07T06:40:27.299Z,19.10
2019-06-07T06:42:57.743Z,19.00
2019-06-07T06:45:28.107Z,19.00
2019-06-07T06:47:58.368Z,19.10
2019-06-07T06:50:28.785Z,19.20
2019-06-07T06:52:59.027Z,19.20
2019-06-07T06:55:29.406Z,19.20
2019-06-07T06:57:59.807Z,19.50
2019-06-07T07:01:04.118Z,19.80
2019-06-07T07:06:25.848Z,20.20
2019-06-07T07:08:47.870Z,20.40
2019-06-07T07:11:23.100Z,20.50
2019-06-07T07:13:55.843Z,20.60
2019-06-07T07:16:23.927Z,20.70
2019-06-07T07:18:54.881Z,20.80
2019-06-07T07:21:25.337Z,21.20
2019-06-07T07:24:19.748Z,21.10
2019-06-07T07:26:28.032Z,21.10
2019-06-07T07:28:58.473Z,21.10
2019-06-07T07:31:43.031Z,21.30
2019-06-07T07:34:32.726Z,21.30
2019-06-07T07:36:48.214Z,21.60
2019-06-07T07:39:17.769Z,21.90
2019-06-07T07:42:12.309Z,22.60
2019-06-07T07:44:20.232Z,23.20
2019-06-07T07:46:52.774Z,23.70
2019-06-07T07:49:22.479Z,23.70
2019-06-07T07:51:57.083Z,24.00
2019-06-07T07:54:25.579Z,24.20
2019-06-07T07:56:57.372Z,24.50
2019-06-07T07:59:41.753Z,24.60
2019-06-07T08:01:59.939Z,24.90
2019-06-07T08:05:12.683Z,24.80
2019-06-07T08:07:02.425Z,24.90
2019-06-07T08:09:33.048Z,25.00
2019-06-07T08:12:03.773Z,24.90
2019-06-07T08:14:34.232Z,24.80
2019-06-07T08:17:04.479Z,24.60
2019-06-07T08:19:34.948Z,24.40
2019-06-07T08:22:05.384Z,24.20
2019-06-07T08:24:35.701Z,24.20
2019-06-07T08:27:25.404Z,24.10
2019-06-07T08:29:44.724Z,24.10
2019-06-07T08:32:10.514Z,24.00
2019-06-07T08:34:40.995Z,23.90
2019-06-07T08:37:11.582Z,23.90
2019-06-07T08:39:42.190Z,23.80
2019-06-07T08:42:21.230Z,23.60
2019-06-07T08:44:45.436Z,23.70
2019-06-07T08:47:20.534Z,23.60
2019-06-07T08:49:48.104Z,23.50
2019-06-07T08:52:18.360Z,23.30
2019-06-07T08:54:51.981Z,23.30
2019-06-07T08:57:22.847Z,23.30
2019-06-07T08:59:55.708Z,23.20
2019-06-07T09:02:25.952Z,23.30
2019-06-07T09:04:59.286Z,23.20
2019-06-07T09:07:28.744Z,23.20
2019-06-07T09:10:03.575Z,23.20
2019-06-07T09:12:31.144Z,23.20
2019-06-07T09:15:14.955Z,23.20
2019-06-07T09:17:34.172Z,23.20
2019-06-07T09:20:28.301Z,23.10
2019-06-07T09:22:38.898Z,23.20
2019-06-07T09:25:20.078Z,23.20
2019-06-07T09:27:42.674Z,23.20
2019-06-07T09:30:18.592Z,23.10
2019-06-07T09:32:47.552Z,23.10
2019-06-07T09:35:19.647Z,23.00
2019-06-07T09:38:22.958Z,23.00
2019-06-07T09:40:27.889Z,23.00
2019-06-07T09:43:47.300Z,22.90
2019-06-07T09:45:30.062Z,22.80
2019-06-07T09:48:04.446Z,22.90
2019-06-07T09:50:32.630Z,22.90
2019-06-07T09:53:13.962Z,22.90
2019-06-07T09:55:35.210Z,22.90
2019-06-07T09:58:44.950Z,22.90
2019-06-07T10:00:41.554Z,22.70
2019-06-07T10:03:20.548Z,22.60
2019-06-07T10:05:42.233Z,22.50
2019-06-07T10:08:41.433Z,22.50
2019-06-07T10:10:44.776Z,22.50
2019-06-07T10:13:15.644Z,22.50
2019-06-07T10:15:46.053Z,22.40
2019-06-07T10:18:16.381Z,22.50
2019-06-07T10:20:46.777Z,22.50
2019-06-07T10:23:17.163Z,22.50
2019-06-07T10:25:47.691Z,22.60
2019-06-07T10:28:17.931Z,22.60
2019-06-07T10:30:48.478Z,22.70
2019-06-07T10:33:18.774Z,22.80
2019-06-07T10:35:49.013Z,22.80
2019-06-07T10:38:19.311Z,22.80
2019-06-07T10:40:49.740Z,22.90
2019-06-07T10:43:20.103Z,22.80
2019-06-07T10:45:50.355Z,22.80
2019-06-07T10:48:24.789Z,22.80
2019-06-07T10:50:53.797Z,22.90
2019-06-07T10:53:24.096Z,22.90
2019-06-07T10:55:54.509Z,22.80
2019-06-07T10:58:24.958Z,22.80
2019-06-07T11:00:55.619Z,22.70
2019-06-07T11:03:26.037Z,22.80
2019-06-07T11:05:56.490Z,22.80
2019-06-07T11:08:26.799Z,22.80
2019-06-07T11:10:57.056Z,22.80
2019-06-07T11:13:27.491Z,22.80
2019-06-07T11:15:57.814Z,22.90
2019-06-07T11:18:28.199Z,22.90
2019-06-07T11:20:58.489Z,23.00
2019-06-07T11:23:28.928Z,22.90
2019-06-07T11:26:00.294Z,23.00
2019-06-07T11:28:30.553Z,23.00
2019-06-07T11:31:00.916Z,22.90
2019-06-07T11:33:31.218Z,23.00
2019-06-07T11:36:03.717Z,23.00
2019-06-07T11:38:34.085Z,23.00
2019-06-07T11:41:12.119Z,23.00
2019-06-07T11:43:43.053Z,23.00
2019-06-07T11:46:13.406Z,23.10
2019-06-07T11:48:43.754Z,23.10
2019-06-07T11:51:14.990Z,23.10
2019-06-07T11:53:46.155Z,23.10
2019-06-07T11:56:18.725Z,23.10
2019-06-07T11:58:49.327Z,23.10
2019-06-07T12:01:19.765Z,23.00
2019-06-07T12:03:50.320Z,23.00
2019-06-07T12:06:20.624Z,23.00
2019-06-07T12:08:51.242Z,23.00
2019-06-07T12:11:21.660Z,23.10
2019-06-07T12:13:51.984Z,23.00
2019-06-07T12:16:22.474Z,23.00
2019-06-07T12:18:52.787Z,23.00
2019-06-07T12:21:23.161Z,23.10
2019-06-07T12:23:53.536Z,23.10
2019-06-07T12:26:23.961Z,23.10
2019-06-07T12:28:54.499Z,23.10
2019-06-07T12:31:24.974Z,23.10
2019-06-07T12:33:55.418Z,23.10
2019-06-07T12:36:25.766Z,23.10
2019-06-07T12:38:56.198Z,23.10
2019-06-07T12:41:26.686Z,23.10
2019-06-07T12:43:59.239Z,23.10
2019-06-07T12:46:29.272Z,23.10
2019-06-07T12:48:59.772Z,23.10
2019-06-07T12:51:30.118Z,23.10
2019-06-07T12:54:00.667Z,23.10
2019-06-07T12:56:30.933Z,23.10
2019-06-07T12:59:02.442Z,23.10
2019-06-07T13:01:32.992Z,23.10
2019-06-07T13:04:03.760Z,23.10
2019-06-07T13:06:34.703Z,23.10
2019-06-07T13:09:06.267Z,23.10
2019-06-07T13:11:36.994Z,23.10
2019-06-07T13:14:07.434Z,23.10
2019-06-07T13:16:37.676Z,23.10
2019-06-07T13:19:08.568Z,23.10
2019-06-07T13:21:38.901Z,23.10
2019-06-07T13:24:09.673Z,23.00
2019-06-07T13:26:39.790Z,23.00
2019-06-07T13:29:10.303Z,23.10
2019-06-07T13:31:40.720Z,23.10
2019-06-07T13:34:11.053Z,23.10
2019-06-07T13:36:41.436Z,23.10
2019-06-07T13:39:12.372Z,23.10
2019-06-07T13:41:43.396Z,23.10
2019-06-07T13:44:13.807Z,23.10
2019-06-07T13:46:44.070Z,23.10
2019-06-07T13:49:14.370Z,23.10
2019-06-07T13:51:45.008Z,23.10
2019-06-07T13:54:15.571Z,23.20
2019-06-07T13:57:01.353Z,23.10
2019-06-07T13:59:18.978Z,23.20
2019-06-07T14:01:52.305Z,23.20
2019-06-07T14:04:23.252Z,23.30
2019-06-07T14:06:53.765Z,23.30
2019-06-07T14:09:25.170Z,23.30
2019-06-07T14:11:55.757Z,23.40
2019-06-07T14:14:27.459Z,23.40
2019-06-07T14:16:58.144Z,23.40
2019-06-07T14:19:30.915Z,23.40
2019-06-07T14:22:02.028Z,23.50
2019-06-07T14:24:33.242Z,23.50
2019-06-07T14:27:09.563Z,23.50
2019-06-07T14:29:40.358Z,23.50
2019-06-07T14:32:11.578Z,23.50
2019-06-07T14:34:42.571Z,23.50
2019-06-07T14:37:13.284Z,23.60
2019-06-07T14:39:43.870Z,23.60
2019-06-07T14:42:15.654Z,23.60
2019-06-07T14:44:46.017Z,23.60
2019-06-07T14:47:16.383Z,23.70
2019-06-07T14:49:46.801Z,23.70
2019-06-07T14:52:17.517Z,23.70
2019-06-07T14:54:49.443Z,23.70
2019-06-07T14:57:20.120Z,23.70
2019-06-07T14:59:51.134Z,23.80
2019-06-07T15:02:21.392Z,23.80
2019-06-07T15:04:51.942Z,23.80
2019-06-07T15:07:22.205Z,23.80
2019-06-07T15:09:53.133Z,23.80
2019-06-07T15:12:25.420Z,23.80
2019-06-07T15:14:55.487Z,23.80
2019-06-07T15:17:26.472Z,23.80
2019-06-07T15:19:57.302Z,23.80
2019-06-07T15:22:27.993Z,23.90
2019-06-07T15:24:58.494Z,23.90
2019-06-07T15:27:29.094Z,23.90
2019-06-07T15:30:09.287Z,23.90
2019-06-07T15:32:32.967Z,23.90
2019-06-07T15:35:05.138Z,23.90
2019-06-07T15:37:36.684Z,24.00
2019-06-07T15:40:09.727Z,24.00
2019-06-07T15:42:51.227Z,24.00
2019-06-07T15:45:12.544Z,24.00
2019-06-07T15:47:43.187Z,24.10
2019-06-07T15:50:13.894Z,24.10
2019-06-07T15:52:44.676Z,24.10
2019-06-07T15:55:16.083Z,24.10
2019-06-07T15:57:46.582Z,24.10
2019-06-07T16:00:18.725Z,24.10
2019-06-07T16:02:49.437Z,24.10
2019-06-07T16:05:20.458Z,24.10
2019-06-07T16:07:51.169Z,24.10
2019-06-07T16:10:21.812Z,24.20
2019-06-07T16:13:00.194Z,24.20
2019-06-07T16:15:26.917Z,24.20
2019-06-07T16:17:57.400Z,24.10
2019-06-07T16:20:27.903Z,24.20
2019-06-07T16:22:58.435Z,24.20
2019-06-07T16:25:28.986Z,24.20
2019-06-07T16:27:59.650Z,24.20
2019-06-07T16:30:30.668Z,24.20
2019-06-07T16:33:01.220Z,24.20
2019-06-07T16:35:31.667Z,24.20
2019-06-07T16:38:04.063Z,24.20
2019-06-07T16:40:34.542Z,24.20
2019-06-07T16:43:16.949Z,24.20
2019-06-07T16:45:38.595Z,24.20
2019-06-07T16:48:09.302Z,24.20
2019-06-07T16:50:40.967Z,24.20
2019-06-07T16:53:11.506Z,24.20
2019-06-07T16:55:42.723Z,24.20
2019-06-07T16:58:13.344Z,24.20
2019-06-07T17:00:44.295Z,24.20
2019-06-07T17:03:14.982Z,24.20
2019-06-07T17:05:48.344Z,24.20
2019-06-07T17:08:17.590Z,24.20
2019-06-07T17:10:49.149Z,24.20
2019-06-07T17:13:32.363Z,24.20
2019-06-07T17:15:51.683Z,24.20
2019-06-07T17:18:22.327Z,24.20
2019-06-07T17:20:52.757Z,24.20
2019-06-07T17:23:23.192Z,24.20
2019-06-07T17:25:53.795Z,24.20
2019-06-07T17:28:24.271Z,24.40
2019-06-07T17:30:54.861Z,24.50
2019-06-07T17:33:25.180Z,24.70
2019-06-07T17:35:56.739Z,24.90
2019-06-07T17:38:27.144Z,25.10
2019-06-07T17:40:57.618Z,25.10
2019-06-07T17:43:27.830Z,25.00
2019-06-07T17:45:57.990Z,24.90
2019-06-07T17:48:28.370Z,24.90
2019-06-07T17:50:58.552Z,24.80
2019-06-07T17:53:30.659Z,24.70
2019-06-07T17:56:00.727Z,24.70
2019-06-07T17:58:32.333Z,24.70
2019-06-07T18:01:02.774Z,24.60
2019-06-07T18:03:33.233Z,24.60
2019-06-07T18:06:04.790Z,24.60
2019-06-07T18:08:36.110Z,24.50
2019-06-07T18:11:06.920Z,24.50
2019-06-07T18:13:37.290Z,24.50
2019-06-07T18:16:07.711Z,24.40
2019-06-07T18:18:38.148Z,24.40
2019-06-07T18:21:08.811Z,24.40
2019-06-07T18:23:39.025Z,24.30
2019-06-07T18:26:09.343Z,24.30
2019-06-07T18:28:39.516Z,24.30
2019-06-07T18:31:09.855Z,24.30
2019-06-07T18:33:41.659Z,24.20
2019-06-07T18:36:12.233Z,24.20
2019-06-07T18:38:43.888Z,24.20
2019-06-07T18:41:17.063Z,24.20
2019-06-07T18:43:49.181Z,24.10
2019-06-07T18:46:19.816Z,24.10
2019-06-07T18:48:53.140Z,24.10
2019-06-07T18:51:27.791Z,24.10
2019-06-07T18:53:59.242Z,24.10
2019-06-07T18:56:30.995Z,24.00
2019-06-07T18:59:03.183Z,24.00
2019-06-07T19:01:33.742Z,24.00
2019-06-07T19:04:04.671Z,24.00
2019-06-07T19:06:35.016Z,23.90
2019-06-07T19:09:06.835Z,23.90
2019-06-07T19:11:37.307Z,23.90
2019-06-07T19:14:07.736Z,23.80
2019-06-07T19:16:38.110Z,23.80
2019-06-07T19:19:08.515Z,23.80
2019-06-07T19:21:39.073Z,23.80
2019-06-07T19:24:09.575Z,23.80
2019-06-07T19:26:40.018Z,23.70
2019-06-07T19:29:11.784Z,23.70
2019-06-07T19:31:43.002Z,23.60
2019-06-07T19:34:13.588Z,23.60
2019-06-07T19:36:48.803Z,23.60
2019-06-07T19:39:16.385Z,23.50
2019-06-07T19:41:46.859Z,23.50
2019-06-07T19:44:19.171Z,23.40
2019-06-07T19:46:49.479Z,23.40
2019-06-07T19:49:21.533Z,23.40
2019-06-07T19:51:52.834Z,23.40
2019-06-07T19:54:23.444Z,23.30
2019-06-07T19:56:55.414Z,23.30
2019-06-07T19:59:26.870Z,23.20
2019-06-07T20:01:57.894Z,23.10
2019-06-07T20:04:29.050Z,23.10
2019-06-07T20:07:00.309Z,23.00
2019-06-07T20:09:31.708Z,23.00
2019-06-07T20:12:02.846Z,23.00
2019-06-07T20:14:33.259Z,23.00
2019-06-07T20:17:05.462Z,22.90
2019-06-07T20:19:36.002Z,22.90
2019-06-07T20:22:06.392Z,22.90
2019-06-07T20:24:38.151Z,22.90
2019-06-07T20:27:08.731Z,22.90
2019-06-07T20:29:39.257Z,22.90
2019-06-07T20:32:09.536Z,22.90
2019-06-07T20:34:44.061Z,22.80
2019-06-07T20:37:12.163Z,22.80
2019-06-07T20:39:43.005Z,22.80
2019-06-07T20:42:14.017Z,22.70
2019-06-07T20:44:44.300Z,22.70
2019-06-07T20:47:14.555Z,22.60
2019-06-07T20:49:45.109Z,22.60
2019-06-07T20:52:15.508Z,22.50
2019-06-07T20:54:46.340Z,22.60
2019-06-07T20:57:16.718Z,22.50
2019-06-07T20:59:47.079Z,22.50
2019-06-07T21:02:17.581Z,22.50
2019-06-07T21:04:48.759Z,22.50
2019-06-07T21:07:22.139Z,22.50
2019-06-07T21:09:53.123Z,22.50
2019-06-07T21:12:23.484Z,22.50
2019-06-07T21:14:53.971Z,22.50
2019-06-07T21:17:24.319Z,22.50
2019-06-07T21:19:56.037Z,22.40
2019-06-07T21:22:26.383Z,22.40
2019-06-07T21:24:56.634Z,22.40
2019-06-07T21:27:27.011Z,22.40
2019-06-07T21:29:57.233Z,22.40
2019-06-07T21:32:27.811Z,22.40
2019-06-07T21:34:58.147Z,22.40
2019-06-07T21:37:28.487Z,22.30
2019-06-07T21:39:58.747Z,22.30
2019-06-07T21:42:29.158Z,22.30
2019-06-07T21:45:03.513Z,22.30
2019-06-07T21:47:33.823Z,22.30
2019-06-07T21:50:08.453Z,22.30
2019-06-07T21:52:39.342Z,22.30
2019-06-07T21:55:11.457Z,22.30
2019-06-07T21:57:41.986Z,22.20
2019-06-07T22:00:18.051Z,22.20
2019-06-07T22:02:48.459Z,22.20
2019-06-07T22:05:19.006Z,22.30
2019-06-07T22:07:49.205Z,22.20
2019-06-07T22:10:20.979Z,22.30
2019-06-07T22:12:51.600Z,22.30
2019-06-07T22:15:32.419Z,22.30
2019-06-07T22:17:54.738Z,22.30
2019-06-07T22:20:24.987Z,22.20
2019-06-07T22:22:55.132Z,22.20
2019-06-07T22:25:25.612Z,22.20
2019-06-07T22:27:55.952Z,22.10
2019-06-07T22:30:26.295Z,22.20
2019-06-07T22:32:56.390Z,22.10
2019-06-07T22:35:27.367Z,22.10
2019-06-07T22:37:57.707Z,22.00
2019-06-07T22:40:27.793Z,21.80
2019-06-07T22:42:58.047Z,21.60
2019-06-07T22:45:28.508Z,21.40
2019-06-07T22:47:59.629Z,21.20
2019-06-07T22:50:30.021Z,20.80
2019-06-07T22:53:00.256Z,20.70
2019-06-07T22:55:30.460Z,20.50
2019-06-07T22:58:00.826Z,20.30
2019-06-07T23:00:32.715Z,20.10
2019-06-07T23:03:02.972Z,20.00
2019-06-07T23:05:33.226Z,20.00
2019-06-07T23:08:03.576Z,19.90
2019-06-07T23:10:33.967Z,19.90
2019-06-07T23:13:04.341Z,19.80
2019-06-07T23:15:34.627Z,19.80
2019-06-07T23:18:05.146Z,19.70
2019-06-07T23:20:35.482Z,19.60
2019-06-07T23:23:05.841Z,19.70
2019-06-07T23:25:36.189Z,19.60
2019-06-07T23:28:06.591Z,19.60
2019-06-07T23:30:37.255Z,19.60
2019-06-07T23:33:07.521Z,19.50
2019-06-07T23:35:38.004Z,19.40
2019-06-07T23:38:10.829Z,19.30
2019-06-07T23:40:41.338Z,19.20
2019-06-07T23:43:13.356Z,19.10
2019-06-07T23:45:43.708Z,19.10
2019-06-07T23:48:13.821Z,19.20
2019-06-07T23:50:45.192Z,19.20
2019-06-07T23:53:15.640Z,19.30
2019-06-07T23:55:46.049Z,19.30
2019-06-07T23:58:16.376Z,19.30
